createdAt,value
2022-11-01T00:02:18.028Z,100.00
2022-11-01T00:04:48.855Z,100.00
2022-11-01T00:07:18.173Z,100.00
2022-11-01T00:09:47.868Z,100.00
2022-11-01T00:12:17.283Z,100.00
2022-11-01T00:14:46.667Z,100.00
2022-11-01T00:17:15.902Z,100.00
2022-11-01T00:19:44.784Z,100.00
2022-11-01T00:22:15.386Z,100.00
2022-11-01T00:24:44.761Z,100.00
2022-11-01T00:27:13.719Z,100.00
2022-11-01T00:29:42.451Z,100.00
2022-11-01T00:32:12.764Z,100.00
2022-11-01T00:34:41.767Z,100.00
2022-11-01T00:37:10.682Z,100.00
2022-11-01T00:39:41.021Z,100.00
2022-11-01T00:42:10.247Z,100.00
2022-11-01T00:44:39.525Z,100.00
2022-11-01T00:47:08.699Z,100.00
2022-11-01T00:49:37.879Z,100.00
2022-11-01T00:52:07.058Z,100.00
2022-11-01T00:54:36.105Z,100.00
2022-11-01T00:57:06.244Z,100.00
2022-11-01T00:59:38.305Z,100.00
2022-11-01T01:02:10.167Z,100.00
2022-11-01T01:04:43.316Z,100.00
2022-11-01T01:07:13.584Z,100.00
2022-11-01T01:09:42.766Z,100.00
2022-11-01T01:12:13.295Z,100.00
2022-11-01T01:14:42.483Z,100.00
2022-11-01T01:17:12.009Z,100.00
2022-11-01T01:19:41.200Z,100.00
2022-11-01T01:22:10.088Z,100.00
2022-11-01T01:24:44.922Z,100.00
2022-11-01T01:27:15.977Z,100.00
2022-11-01T01:29:45.573Z,100.00
2022-11-01T01:32:15.088Z,100.00
2022-11-01T01:34:44.453Z,100.00
2022-11-01T01:37:16.447Z,100.00
2022-11-01T01:39:45.609Z,100.00
2022-11-01T01:42:21.289Z,100.00
2022-11-01T01:45:31.952Z,100.00
2022-11-01T01:48:11.105Z,100.00
2022-11-01T01:50:44.954Z,100.00
2022-11-01T01:53:19.058Z,100.00
2022-11-01T01:55:50.248Z,100.00
2022-11-01T01:58:25.179Z,100.00
2022-11-01T02:00:55.135Z,100.00
2022-11-01T02:03:28.568Z,100.00
2022-11-01T02:06:01.738Z,100.00
2022-11-01T02:08:31.438Z,100.00
2022-11-01T02:11:03.750Z,100.00
2022-11-01T02:13:34.839Z,100.00
2022-11-01T02:16:16.238Z,100.00
2022-11-01T02:18:49.456Z,100.00
2022-11-01T02:21:51.238Z,100.00
2022-11-01T02:24:51.216Z,100.00
2022-11-01T02:27:26.444Z,100.00
2022-11-01T02:30:16.169Z,100.00
2022-11-01T02:33:04.182Z,100.00
2022-11-01T02:35:47.598Z,100.00
2022-11-01T02:38:24.254Z,100.00
2022-11-01T02:41:01.462Z,100.00
2022-11-01T02:43:35.717Z,100.00
2022-11-01T02:46:21.200Z,100.00
2022-11-01T02:48:52.234Z,100.00
2022-11-01T02:51:23.752Z,100.00
2022-11-01T02:53:52.893Z,100.00
2022-11-01T02:56:23.575Z,100.00
2022-11-01T02:58:53.895Z,100.00
2022-11-01T03:01:26.118Z,100.00
2022-11-01T03:03:59.081Z,100.00
2022-11-01T03:06:34.242Z,100.00
2022-11-01T03:09:07.452Z,100.00
2022-11-01T03:11:45.394Z,100.00
2022-11-01T03:14:24.934Z,100.00
2022-11-01T03:17:00.653Z,100.00
2022-11-01T03:19:44.513Z,100.00
2022-11-01T03:22:17.235Z,100.00
2022-11-01T03:24:51.000Z,100.00
2022-11-01T03:27:25.634Z,100.00
2022-11-01T03:29:59.649Z,100.00
2022-11-01T03:32:34.053Z,100.00
2022-11-01T03:35:05.651Z,100.00
2022-11-01T03:37:37.113Z,100.00
2022-11-01T03:40:09.648Z,100.00
2022-11-01T03:42:40.345Z,100.00
2022-11-01T03:45:12.687Z,100.00
2022-11-01T03:47:41.933Z,100.00
2022-11-01T03:50:20.200Z,100.00
2022-11-01T03:52:49.881Z,100.00
2022-11-01T03:55:20.508Z,100.00
2022-11-01T03:57:50.280Z,100.00
2022-11-01T04:00:21.846Z,100.00
2022-11-01T04:02:51.267Z,100.00
2022-11-01T04:05:22.611Z,100.00
2022-11-01T04:07:52.353Z,100.00
2022-11-01T04:10:22.968Z,100.00
2022-11-01T04:12:52.622Z,100.00
2022-11-01T04:15:40.143Z,100.00
2022-11-01T04:18:35.277Z,100.00
2022-11-01T04:21:09.006Z,100.00
2022-11-01T04:23:38.595Z,100.00
2022-11-01T04:26:09.087Z,100.00
2022-11-01T04:28:38.445Z,100.00
2022-11-01T04:31:07.695Z,100.00
2022-11-01T04:33:36.818Z,100.00
2022-11-01T04:36:08.420Z,100.00
2022-11-01T04:38:37.467Z,100.00
2022-11-01T04:41:06.687Z,100.00
2022-11-01T04:43:36.055Z,100.00
2022-11-01T04:46:05.173Z,100.00
2022-11-01T04:48:35.085Z,100.00
2022-11-01T04:51:04.271Z,100.00
2022-11-01T04:53:34.566Z,100.00
2022-11-01T04:56:04.489Z,100.00
2022-11-01T04:58:34.495Z,100.00
2022-11-01T05:01:07.320Z,100.00
2022-11-01T05:03:37.399Z,100.00
2022-11-01T05:06:07.238Z,100.00
2022-11-01T05:08:37.888Z,100.00
2022-11-01T05:11:07.240Z,100.00
2022-11-01T05:13:36.428Z,100.00
2022-11-01T05:16:18.975Z,100.00
2022-11-01T05:18:49.524Z,100.00
2022-11-01T05:21:18.867Z,100.00
2022-11-01T05:23:50.052Z,100.00
2022-11-01T05:26:19.054Z,100.00
2022-11-01T05:28:48.158Z,100.00
2022-11-01T05:31:17.186Z,100.00
2022-11-01T05:33:46.906Z,100.00
2022-11-01T05:36:16.658Z,100.00
2022-11-01T05:38:45.651Z,100.00
2022-11-01T05:41:16.762Z,100.00
2022-11-01T05:43:46.308Z,100.00
2022-11-01T05:46:15.615Z,100.00
2022-11-01T05:48:45.666Z,100.00
2022-11-01T05:51:14.399Z,100.00
2022-11-01T05:53:43.648Z,100.00
2022-11-01T05:56:13.759Z,100.00
2022-11-01T05:58:44.042Z,100.00
2022-11-01T06:01:13.127Z,100.00
2022-11-01T06:03:42.427Z,100.00
2022-11-01T06:06:12.259Z,100.00
2022-11-01T06:08:41.317Z,100.00
2022-11-01T06:11:11.428Z,100.00
2022-11-01T06:13:40.468Z,100.00
2022-11-01T06:16:11.133Z,100.00
2022-11-01T06:18:40.293Z,100.00
2022-11-01T06:21:09.382Z,100.00
2022-11-01T06:23:40.213Z,100.00
2022-11-01T06:26:09.415Z,100.00
2022-11-01T06:28:38.912Z,100.00
2022-11-01T06:31:07.968Z,100.00
2022-11-01T06:33:38.796Z,100.00
2022-11-01T06:36:08.509Z,100.00
2022-11-01T06:38:37.858Z,100.00
2022-11-01T06:41:06.922Z,100.00
2022-11-01T06:43:36.172Z,100.00
2022-11-01T06:46:05.357Z,100.00
2022-11-01T06:48:34.652Z,100.00
2022-11-01T06:51:06.241Z,100.00
2022-11-01T06:53:35.439Z,100.00
2022-11-01T06:56:04.793Z,100.00
2022-11-01T06:58:34.053Z,100.00
2022-11-01T07:01:03.435Z,100.00
2022-11-01T07:03:32.802Z,100.00
2022-11-01T07:06:02.029Z,100.00
2022-11-01T07:08:32.572Z,100.00
2022-11-01T07:11:01.876Z,100.00
2022-11-01T07:13:34.132Z,100.00
2022-11-01T07:16:04.310Z,100.00
2022-11-01T07:18:34.671Z,100.00
2022-11-01T07:21:05.405Z,100.00
2022-11-01T07:23:35.900Z,100.00
2022-11-01T07:26:05.482Z,100.00
2022-11-01T07:28:35.328Z,100.00
2022-11-01T07:31:04.794Z,100.00
2022-11-01T07:33:34.225Z,100.00
2022-11-01T07:36:03.847Z,100.00
2022-11-01T07:38:33.391Z,100.00
2022-11-01T07:41:04.884Z,100.00
2022-11-01T07:43:35.788Z,100.00
2022-11-01T07:46:07.408Z,100.00
2022-11-01T07:48:37.185Z,100.00
2022-11-01T07:51:07.677Z,100.00
2022-11-01T07:53:36.828Z,100.00
2022-11-01T07:56:08.659Z,100.00
2022-11-01T07:58:37.866Z,100.00
2022-11-01T08:01:07.250Z,100.00
2022-11-01T08:03:36.469Z,100.00
2022-11-01T08:06:05.829Z,100.00
2022-11-01T08:08:35.080Z,100.00
2022-11-01T08:11:04.456Z,100.00
2022-11-01T08:13:34.668Z,100.00
2022-11-01T08:16:03.737Z,100.00
2022-11-01T08:18:32.901Z,100.00
2022-11-01T08:21:01.992Z,100.00
2022-11-01T08:23:31.161Z,100.00
2022-11-01T08:26:00.307Z,100.00
2022-11-01T08:28:30.633Z,100.00
2022-11-01T08:31:01.116Z,100.00
2022-11-01T08:33:30.058Z,100.00
2022-11-01T08:35:59.293Z,100.00
2022-11-01T08:38:29.167Z,100.00
2022-11-01T08:41:00.045Z,100.00
2022-11-01T08:43:29.476Z,100.00
2022-11-01T08:46:01.227Z,100.00
2022-11-01T08:48:31.077Z,96.19
2022-11-01T08:51:00.315Z,95.41
2022-11-01T08:53:29.635Z,95.07
2022-11-01T08:55:59.191Z,96.44
2022-11-01T08:58:28.653Z,95.49
2022-11-01T09:00:57.735Z,99.86
2022-11-01T09:03:28.903Z,97.89
2022-11-01T09:05:59.224Z,94.37
2022-11-01T09:08:28.698Z,94.81
2022-11-01T09:10:59.799Z,91.94
2022-11-01T09:13:29.188Z,93.21
2022-11-01T09:16:02.210Z,94.57
2022-11-01T09:18:33.409Z,89.45
2022-11-01T09:21:03.091Z,98.67
2022-11-01T09:23:32.505Z,93.90
2022-11-01T09:26:05.265Z,90.10
2022-11-01T09:28:35.113Z,89.56
2022-11-01T09:31:19.857Z,87.86
2022-11-01T09:33:51.334Z,84.92
2022-11-01T09:36:21.353Z,87.64
2022-11-01T09:38:50.335Z,86.01
2022-11-01T09:41:30.111Z,85.35
2022-11-01T09:44:02.556Z,88.40
2022-11-01T09:46:36.965Z,86.77
2022-11-01T09:49:08.836Z,82.81
2022-11-01T09:51:37.817Z,78.92
2022-11-01T09:54:08.594Z,78.59
2022-11-01T09:56:44.469Z,73.83
2022-11-01T09:59:25.784Z,69.53
2022-11-01T10:02:09.698Z,56.55
2022-11-01T10:05:17.692Z,49.16
2022-11-01T10:08:01.354Z,43.72
2022-11-01T10:10:39.490Z,43.77
2022-11-01T10:13:25.769Z,41.88
2022-11-01T10:16:02.407Z,41.11
2022-11-01T10:18:33.201Z,39.95
2022-11-01T10:21:11.400Z,37.93
2022-11-01T10:23:47.003Z,37.76
2022-11-01T10:26:21.345Z,37.31
2022-11-01T10:28:56.177Z,36.30
2022-11-01T10:31:28.825Z,33.57
2022-11-01T10:34:03.809Z,32.54
2022-11-01T10:55:42.785Z,28.69
2022-11-01T10:58:20.504Z,27.34
2022-11-01T11:00:50.359Z,27.35
2022-11-01T11:03:23.963Z,26.70
2022-11-01T11:05:55.794Z,26.88
2022-11-01T11:08:26.222Z,27.35
2022-11-01T11:11:00.809Z,26.87
2022-11-01T11:13:32.574Z,26.36
2022-11-01T11:16:05.685Z,26.05
2022-11-01T11:18:39.756Z,26.12
2022-11-01T11:21:11.970Z,25.70
2022-11-01T11:23:43.838Z,25.49
2022-11-01T11:26:16.966Z,24.89
2022-11-01T11:28:49.188Z,24.99
2022-11-01T11:31:24.948Z,24.35
2022-11-01T11:33:58.373Z,24.33
2022-11-01T11:36:29.701Z,24.50
2022-11-01T11:38:59.267Z,23.96
2022-11-01T11:41:31.632Z,25.59
2022-11-01T11:44:00.778Z,25.01
2022-11-01T11:46:30.437Z,25.27
2022-11-01T11:49:03.156Z,25.19
2022-11-01T11:51:35.665Z,27.57
2022-11-01T11:54:17.995Z,27.37
2022-11-01T11:56:51.667Z,28.12
2022-11-01T11:59:26.975Z,28.74
2022-11-01T12:02:00.416Z,27.45
2022-11-01T12:04:36.029Z,27.22
2022-11-01T12:07:07.792Z,27.23
2022-11-01T12:09:45.313Z,27.82
2022-11-01T12:12:21.707Z,28.45
2022-11-01T12:14:51.181Z,30.13
2022-11-01T12:17:45.452Z,29.95
2022-11-01T12:20:38.833Z,27.77
2022-11-01T12:23:15.863Z,27.54
2022-11-01T12:25:47.228Z,28.42
2022-11-01T12:28:22.203Z,27.57
2022-11-01T12:30:56.082Z,27.14
2022-11-01T12:33:35.354Z,27.90
2022-11-01T12:36:04.524Z,28.26
2022-11-01T12:38:42.925Z,27.59
2022-11-01T12:41:28.997Z,28.61
2022-11-01T12:44:07.151Z,28.81
2022-11-01T12:46:41.487Z,29.55
2022-11-01T12:49:20.891Z,29.45
2022-11-01T12:51:53.942Z,31.13
2022-11-01T12:54:27.309Z,30.20
2022-11-01T12:56:56.925Z,30.82
2022-11-01T12:59:33.835Z,31.78
2022-11-01T13:02:14.658Z,32.84
2022-11-01T13:04:49.842Z,35.98
2022-11-01T13:07:33.907Z,36.85
2022-11-01T13:10:12.078Z,39.26
2022-11-01T13:12:50.720Z,38.91
2022-11-01T13:15:28.504Z,40.35
2022-11-01T13:18:06.459Z,41.26
2022-11-01T13:20:45.177Z,41.85
2022-11-01T13:23:24.403Z,43.19
2022-11-01T13:26:01.335Z,41.70
2022-11-01T13:28:49.211Z,42.85
2022-11-01T13:31:32.619Z,43.32
2022-11-01T13:34:17.089Z,42.67
2022-11-01T13:36:50.544Z,41.99
2022-11-01T13:39:25.586Z,42.60
2022-11-01T13:42:02.649Z,42.83
2022-11-01T13:44:38.788Z,43.34
2022-11-01T13:47:23.883Z,43.10
2022-11-01T13:50:23.054Z,43.05
2022-11-01T13:53:00.210Z,43.41
2022-11-01T13:55:36.481Z,43.80
2022-11-01T13:58:06.960Z,42.17
2022-11-01T14:00:42.736Z,43.38
2022-11-01T14:03:25.374Z,42.75
2022-11-01T14:09:31.304Z,40.74
2022-11-01T16:55:12.480Z,56.52
2022-11-01T16:57:42.960Z,56.22
2022-11-01T17:00:14.920Z,57.34
2022-11-01T17:02:45.469Z,62.25
2022-11-01T17:05:21.695Z,61.73
2022-11-01T17:07:50.927Z,62.85
2022-11-01T17:10:25.839Z,68.29
2022-11-01T17:12:57.962Z,95.12
2022-11-01T17:15:27.997Z,100.00
2022-11-01T17:17:57.537Z,96.89
2022-11-01T17:20:29.320Z,100.00
2022-11-01T17:22:59.573Z,100.00
2022-11-01T17:26:02.550Z,100.00
2022-11-01T17:28:31.531Z,100.00
2022-11-01T17:31:06.137Z,100.00
2022-11-01T17:33:36.664Z,100.00
2022-11-01T17:36:06.467Z,100.00
2022-11-01T17:38:36.670Z,100.00
2022-11-01T17:41:18.527Z,95.69
2022-11-01T17:43:47.596Z,96.84
2022-11-01T17:46:20.019Z,99.06
2022-11-01T17:48:54.058Z,91.76
2022-11-01T17:51:25.037Z,93.30
2022-11-01T17:53:55.475Z,100.00
2022-11-01T17:56:26.557Z,99.00
2022-11-01T17:58:56.672Z,100.00
2022-11-01T18:01:26.412Z,97.92
2022-11-01T18:04:01.306Z,97.84
2022-11-01T18:06:58.781Z,100.00
2022-11-01T18:09:28.006Z,100.00
2022-11-01T18:12:14.249Z,100.00
2022-11-01T18:14:58.347Z,100.00
2022-11-01T18:17:49.048Z,100.00
2022-11-01T18:21:10.325Z,100.00
2022-11-01T18:23:48.142Z,100.00
2022-11-01T18:26:50.114Z,100.00
2022-11-01T18:29:26.569Z,100.00
2022-11-01T18:32:25.457Z,100.00
2022-11-01T18:35:01.680Z,100.00
2022-11-01T18:37:43.047Z,100.00
2022-11-01T18:40:23.307Z,100.00
2022-11-01T18:43:02.151Z,100.00
2022-11-01T18:45:57.853Z,100.00
2022-11-01T18:48:32.007Z,100.00
2022-11-01T18:51:11.241Z,100.00
2022-11-01T18:53:45.248Z,100.00
2022-11-01T18:56:21.650Z,100.00
2022-11-01T18:58:52.726Z,100.00
2022-11-01T19:01:32.519Z,100.00
2022-11-01T19:04:06.117Z,100.00
2022-11-01T19:06:35.673Z,100.00
2022-11-01T19:09:24.641Z,100.00
2022-11-01T19:12:03.330Z,100.00
2022-11-01T19:14:33.750Z,100.00
2022-11-01T19:17:05.539Z,100.00
2022-11-01T19:19:46.274Z,100.00
2022-11-01T19:22:39.261Z,100.00
2022-11-01T19:25:20.181Z,100.00
2022-11-01T19:27:52.130Z,100.00
2022-11-01T19:30:26.776Z,100.00
2022-11-01T19:33:08.068Z,100.00
2022-11-01T19:35:38.948Z,100.00
2022-11-01T19:38:16.618Z,100.00
2022-11-01T19:40:49.914Z,100.00
2022-11-01T19:43:22.681Z,100.00
2022-11-01T19:46:29.919Z,100.00
2022-11-01T19:49:05.892Z,100.00
2022-11-01T19:52:34.401Z,100.00
2022-11-01T19:55:32.674Z,100.00
2022-11-01T19:58:25.050Z,100.00
2022-11-01T20:01:12.970Z,100.00
2022-11-01T20:03:46.633Z,100.00
2022-11-01T20:06:31.092Z,100.00
2022-11-01T20:09:06.545Z,100.00
2022-11-01T20:11:36.210Z,100.00
2022-11-01T20:14:07.346Z,100.00
2022-11-01T20:16:37.556Z,100.00
2022-11-01T20:19:06.913Z,100.00
2022-11-01T20:21:40.519Z,100.00
2022-11-01T20:24:11.037Z,100.00
2022-11-01T20:26:41.051Z,100.00
2022-11-01T20:29:11.362Z,100.00
2022-11-01T20:31:43.770Z,100.00
2022-11-01T20:34:13.575Z,100.00
2022-11-01T20:37:08.103Z,100.00
2022-11-01T20:39:38.660Z,100.00
2022-11-01T20:42:08.602Z,100.00
2022-11-01T20:44:50.476Z,100.00
2022-11-01T20:47:41.441Z,100.00
2022-11-01T20:50:17.699Z,100.00
2022-11-01T20:52:51.170Z,100.00
2022-11-01T20:55:24.734Z,100.00
2022-11-01T20:57:56.870Z,100.00
2022-11-01T21:00:28.862Z,100.00
2022-11-01T21:03:00.979Z,100.00
2022-11-01T21:05:34.929Z,100.00
2022-11-01T21:08:19.752Z,100.00
2022-11-01T21:10:53.306Z,100.00
2022-11-01T21:13:27.918Z,100.00
2022-11-01T21:15:59.211Z,100.00
2022-11-01T21:18:42.502Z,100.00
2022-11-01T21:21:46.418Z,100.00
2022-11-01T21:24:30.922Z,100.00
2022-11-01T21:27:10.233Z,100.00
2022-11-01T21:29:43.066Z,100.00
2022-11-01T21:32:25.380Z,100.00
2022-11-01T21:34:55.130Z,100.00
2022-11-01T21:37:29.474Z,100.00
2022-11-01T21:40:06.648Z,100.00
2022-11-01T21:42:38.514Z,100.00
2022-11-01T21:45:37.877Z,100.00
2022-11-01T21:48:21.714Z,100.00
2022-11-01T21:50:50.668Z,100.00
2022-11-01T21:53:19.737Z,100.00
2022-11-01T21:55:50.768Z,100.00
2022-11-01T21:58:21.850Z,100.00
2022-11-01T22:00:51.371Z,100.00
2022-11-01T22:03:20.778Z,100.00
2022-11-01T22:05:49.652Z,100.00
2022-11-01T22:08:20.924Z,100.00
2022-11-01T22:10:52.911Z,100.00
2022-11-01T22:13:22.022Z,100.00
2022-11-01T22:15:51.104Z,100.00
2022-11-01T22:18:24.981Z,100.00
2022-11-01T22:20:54.429Z,100.00
2022-11-01T22:23:42.027Z,100.00
2022-11-01T22:26:12.696Z,100.00
2022-11-01T22:28:41.686Z,100.00
2022-11-01T22:31:10.778Z,100.00
2022-11-01T22:33:40.676Z,100.00
2022-11-01T22:36:17.201Z,100.00
2022-11-01T22:38:46.059Z,100.00
2022-11-01T22:41:18.070Z,100.00
2022-11-01T22:43:49.751Z,100.00
2022-11-01T22:46:22.545Z,100.00
2022-11-01T22:48:54.210Z,100.00
2022-11-01T22:51:26.589Z,100.00
2022-11-01T22:53:59.344Z,100.00
2022-11-01T22:56:31.003Z,100.00
2022-11-01T22:58:59.900Z,100.00
2022-11-01T23:01:30.674Z,100.00
2022-11-01T23:04:03.561Z,100.00
2022-11-01T23:06:34.463Z,100.00
2022-11-01T23:09:14.073Z,100.00
2022-11-01T23:12:06.802Z,100.00
2022-11-01T23:14:39.952Z,100.00
2022-11-01T23:17:19.310Z,100.00
2022-11-01T23:19:50.923Z,100.00
2022-11-01T23:22:22.592Z,100.00
2022-11-01T23:24:54.076Z,100.00
2022-11-01T23:27:26.852Z,100.00
2022-11-01T23:29:56.951Z,100.00
2022-11-01T23:32:26.276Z,100.00
2022-11-01T23:35:11.136Z,100.00
2022-11-01T23:37:40.034Z,100.00
2022-11-01T23:40:16.250Z,100.00
2022-11-01T23:42:48.415Z,100.00
2022-11-01T23:45:29.005Z,100.00
2022-11-01T23:47:58.608Z,100.00
2022-11-01T23:50:31.570Z,100.00
2022-11-01T23:53:03.411Z,100.00
2022-11-01T23:55:34.817Z,100.00
2022-11-01T23:58:08.038Z,100.00
